createdAt,value
2019-06-07T00:00:47.669Z,8.78
2019-06-07T00:01:47.102Z,10.60
2019-06-07T00:02:47.068Z,11.84
2019-06-07T00:03:47.031Z,13.56
2019-06-07T00:04:46.988Z,14.42
2019-06-07T00:05:46.953Z,15.09
2019-06-07T00:06:46.916Z,16.42
2019-06-07T00:07:46.882Z,16.33
2019-06-07T00:08:46.845Z,16.52
2019-06-07T00:09:46.806Z,16.04
2019-06-07T00:10:46.765Z,15.85
2019-06-07T00:11:46.726Z,15.56
2019-06-07T00:12:46.688Z,15.47
2019-06-07T00:13:46.653Z,14.99
2019-06-07T00:14:46.617Z,14.70
2019-06-07T00:15:46.580Z,15.47
2019-06-07T00:16:46.578Z,14.32
2019-06-07T00:17:46.503Z,15.08
2019-06-07T00:18:46.467Z,14.32
2019-06-07T00:19:46.426Z,13.36
2019-06-07T00:20:46.392Z,13.65
2019-06-07T00:22:15.850Z,13.46
2019-06-07T00:22:46.313Z,15.09
2019-06-07T00:23:46.274Z,15.95
2019-06-07T00:24:46.235Z,16.42
2019-06-07T00:25:46.199Z,17.37
2019-06-07T00:26:57.857Z,17.66
2019-06-07T00:27:46.128Z,16.80
2019-06-07T00:28:46.090Z,16.51
2019-06-07T00:29:46.049Z,15.56
2019-06-07T00:30:52.219Z,15.27
2019-06-07T00:31:45.971Z,15.56
2019-06-07T00:32:45.935Z,18.15
2019-06-07T00:33:45.903Z,18.81
2019-06-07T00:34:45.862Z,19.10
2019-06-07T00:35:45.826Z,19.01
2019-06-07T00:36:45.785Z,18.52
2019-06-07T00:37:45.752Z,19.96
2019-06-07T00:38:45.712Z,20.82
2019-06-07T00:39:45.677Z,20.72
2019-06-07T00:40:45.636Z,21.87
2019-06-07T00:41:45.598Z,22.54
2019-06-07T00:42:45.559Z,22.16
2019-06-07T00:43:45.520Z,22.73
2019-06-07T00:44:45.481Z,22.44
2019-06-07T00:45:45.443Z,21.68
2019-06-07T00:46:45.409Z,21.67
2019-06-07T00:47:45.372Z,22.73
2019-06-07T00:48:45.337Z,21.95
2019-06-07T00:49:45.295Z,22.05
2019-06-07T00:50:45.256Z,21.86
2019-06-07T00:51:50.285Z,21.11
2019-06-07T00:53:19.750Z,21.00
2019-06-07T00:53:45.151Z,21.28
2019-06-07T00:54:45.104Z,21.57
2019-06-07T00:55:45.064Z,22.53
2019-06-07T00:56:45.027Z,23.10
2019-06-07T00:57:45.029Z,24.24
2019-06-07T00:58:44.979Z,24.44
2019-06-07T00:59:44.921Z,23.86
2019-06-07T01:00:44.881Z,23.67
2019-06-07T01:01:44.841Z,23.58
2019-06-07T01:02:44.804Z,22.91
2019-06-07T01:03:44.761Z,22.62
2019-06-07T01:04:44.788Z,22.24
2019-06-07T01:05:44.687Z,21.86
2019-06-07T01:06:44.650Z,22.05
2019-06-07T01:07:44.616Z,21.67
2019-06-07T01:08:44.570Z,21.57
2019-06-07T01:09:44.547Z,18.99
2019-06-07T01:10:53.677Z,17.47
2019-06-07T01:11:44.463Z,16.22
2019-06-07T01:12:44.425Z,15.27
2019-06-07T01:13:44.386Z,13.27
2019-06-07T01:14:44.347Z,13.27
2019-06-07T01:15:44.310Z,12.70
2019-06-07T01:16:56.258Z,11.93
2019-06-07T01:18:32.460Z,12.41
2019-06-07T01:18:46.858Z,12.50
2019-06-07T01:19:44.159Z,11.83
2019-06-07T01:20:44.120Z,10.40
2019-06-07T01:21:44.132Z,10.31
2019-06-07T01:22:44.042Z,11.16
2019-06-07T01:24:08.129Z,10.69
2019-06-07T01:24:43.969Z,10.50
2019-06-07T01:25:43.930Z,10.60
2019-06-07T01:26:43.894Z,9.92
2019-06-07T01:27:43.850Z,10.59
2019-06-07T01:28:43.812Z,9.63
2019-06-07T01:29:43.783Z,8.58
2019-06-07T01:30:43.778Z,8.01
2019-06-07T01:31:44.226Z,7.16
2019-06-07T01:32:43.665Z,7.54
2019-06-07T01:33:51.000Z,7.35
2019-06-07T01:34:43.586Z,7.54
2019-06-07T01:35:43.546Z,8.30
2019-06-07T01:36:43.510Z,8.21
2019-06-07T01:37:43.471Z,7.25
2019-06-07T01:38:43.435Z,7.82
2019-06-07T01:39:43.398Z,7.63
2019-06-07T01:40:43.357Z,6.49
2019-06-07T01:41:43.319Z,6.49
2019-06-07T01:42:43.284Z,6.30
2019-06-07T01:43:43.248Z,7.25
2019-06-07T01:44:43.208Z,7.82
2019-06-07T01:45:43.172Z,7.44
2019-06-07T01:46:43.132Z,7.44
2019-06-07T01:47:43.094Z,8.21
2019-06-07T01:48:49.462Z,8.21
2019-06-07T01:49:43.014Z,8.21
2019-06-07T01:50:42.977Z,8.21
2019-06-07T01:51:42.943Z,7.82
2019-06-07T01:52:42.904Z,7.54
2019-06-07T01:53:42.864Z,7.54
2019-06-07T01:54:56.804Z,7.54
2019-06-07T01:55:42.784Z,8.30
2019-06-07T01:56:42.755Z,7.54
2019-06-07T01:57:48.141Z,6.87
2019-06-07T01:58:42.672Z,6.87
2019-06-07T01:59:42.715Z,6.20
2019-06-07T02:00:42.598Z,6.96
2019-06-07T02:01:42.557Z,7.35
2019-06-07T02:02:42.526Z,7.54
2019-06-07T02:03:42.490Z,8.87
2019-06-07T02:04:42.511Z,9.16
2019-06-07T02:05:42.409Z,9.26
2019-06-07T02:06:42.368Z,10.11
2019-06-07T02:07:42.328Z,10.31
2019-06-07T02:08:42.291Z,9.26
2019-06-07T02:09:42.256Z,9.45
2019-06-07T02:10:42.217Z,9.06
2019-06-07T02:11:42.181Z,8.50
2019-06-07T02:12:43.573Z,8.30
2019-06-07T02:13:42.102Z,7.25
2019-06-07T02:14:42.068Z,7.44
2019-06-07T02:15:42.030Z,7.35
2019-06-07T02:16:41.992Z,6.87
2019-06-07T02:17:41.953Z,6.68
2019-06-07T02:19:00.668Z,6.96
2019-06-07T02:19:41.871Z,6.49
2019-06-07T02:20:41.835Z,6.01
2019-06-07T02:21:41.796Z,5.54
2019-06-07T02:22:41.763Z,5.34
2019-06-07T02:23:41.725Z,4.29
2019-06-07T02:24:41.745Z,3.91
2019-06-07T02:25:48.670Z,3.81
2019-06-07T02:26:41.605Z,4.96
2019-06-07T02:27:41.580Z,4.20
2019-06-07T02:28:45.572Z,4.58
2019-06-07T02:29:41.496Z,5.05
2019-06-07T02:30:50.920Z,4.77
2019-06-07T02:31:41.418Z,4.86
2019-06-07T02:32:41.378Z,4.96
2019-06-07T02:33:41.338Z,5.15
2019-06-07T02:34:41.305Z,5.34
2019-06-07T02:35:41.312Z,6.30
2019-06-07T02:36:41.827Z,6.77
2019-06-07T02:37:41.191Z,8.49
2019-06-07T02:38:41.150Z,7.63
2019-06-07T02:39:41.304Z,7.53
2019-06-07T02:40:41.082Z,6.39
2019-06-07T02:41:41.065Z,5.15
2019-06-07T02:42:42.582Z,4.58
2019-06-07T02:43:40.983Z,4.77
2019-06-07T02:44:41.052Z,4.96
2019-06-07T02:45:43.543Z,5.05
2019-06-07T02:46:48.962Z,4.77
2019-06-07T02:47:40.810Z,4.68
2019-06-07T02:48:40.770Z,5.05
2019-06-07T02:49:42.279Z,5.72
2019-06-07T02:50:40.711Z,6.49
2019-06-07T02:51:41.952Z,6.77
2019-06-07T02:52:41.394Z,6.77
2019-06-07T02:53:40.599Z,7.53
2019-06-07T02:54:40.980Z,7.34
2019-06-07T02:56:33.163Z,7.25
2019-06-07T02:56:56.835Z,6.39
2019-06-07T02:57:42.128Z,5.72
2019-06-07T02:58:41.755Z,3.72
2019-06-07T03:00:05.545Z,2.95
2019-06-07T03:00:54.504Z,2.67
2019-06-07T03:01:42.521Z,1.43
2019-06-07T03:02:41.473Z,0.76
2019-06-07T03:03:40.350Z,0.00
2019-06-07T03:04:42.351Z,0.00
2019-06-07T03:05:41.007Z,0.00
2019-06-07T03:06:43.715Z,0.00
2019-06-07T03:07:44.809Z,0.00
2019-06-07T03:08:40.013Z,0.00
2019-06-07T03:09:40.174Z,0.00
2019-06-07T03:10:41.782Z,0.00
2019-06-07T03:11:39.892Z,0.00
2019-06-07T03:12:39.853Z,0.00
2019-06-07T03:13:41.010Z,0.00
2019-06-07T03:14:39.782Z,0.00
2019-06-07T03:15:49.305Z,0.00
2019-06-07T03:16:39.701Z,0.00
2019-06-07T03:17:40.839Z,0.00
2019-06-07T03:18:41.517Z,0.00
2019-06-07T03:19:39.656Z,0.00
2019-06-07T03:20:39.867Z,0.00
2019-06-07T03:21:41.619Z,0.00
2019-06-07T03:35:35.316Z,0.00
2019-06-07T03:36:35.458Z,1.81
2019-06-07T03:37:37.593Z,6.01
2019-06-07T03:38:35.289Z,6.77
2019-06-07T03:39:36.295Z,6.29
2019-06-07T03:40:36.906Z,7.06
2019-06-07T03:41:44.819Z,8.97
2019-06-07T03:42:34.840Z,10.88
2019-06-07T03:43:37.770Z,10.68
2019-06-07T03:44:36.377Z,9.63
2019-06-07T03:45:36.039Z,5.72
2019-06-07T03:46:35.184Z,2.76
2019-06-07T03:47:36.546Z,0.00
2019-06-07T03:48:36.390Z,0.00
2019-06-07T03:49:37.518Z,0.00
2019-06-07T03:50:36.090Z,0.00
2019-06-07T03:51:35.002Z,0.00
2019-06-07T03:52:35.589Z,0.00
2019-06-07T03:53:34.743Z,0.00
2019-06-07T03:54:36.842Z,0.00
2019-06-07T03:55:35.677Z,0.00
2019-06-07T03:56:35.335Z,0.00
2019-06-07T03:58:23.493Z,0.00
2019-06-07T03:58:45.685Z,0.00
2019-06-07T03:59:38.686Z,3.05
2019-06-07T04:00:36.315Z,4.86
2019-06-07T04:01:34.747Z,5.82
2019-06-07T04:02:33.941Z,8.31
2019-06-07T04:03:42.724Z,10.22
2019-06-07T04:04:35.000Z,13.46
2019-06-07T04:05:37.086Z,15.09
2019-06-07T04:06:36.177Z,19.10
2019-06-07T04:07:34.109Z,21.87
2019-06-07T04:08:34.450Z,22.44
2019-06-07T04:09:36.752Z,24.37
2019-06-07T04:10:52.071Z,25.51
2019-06-07T04:11:32.710Z,25.99
2019-06-07T04:12:38.656Z,26.95
2019-06-07T04:13:36.768Z,28.38
2019-06-07T04:14:32.868Z,27.14
2019-06-07T04:15:36.042Z,26.75
2019-06-07T04:16:34.983Z,27.23
2019-06-07T04:17:34.105Z,26.66
2019-06-07T04:18:33.080Z,27.80
2019-06-07T04:19:34.801Z,28.66
2019-06-07T04:20:34.045Z,29.24
2019-06-07T04:21:35.107Z,29.24
2019-06-07T04:22:35.661Z,28.47
2019-06-07T04:23:35.279Z,27.42
2019-06-07T04:24:34.656Z,26.55
2019-06-07T04:25:35.633Z,26.84
2019-06-07T04:26:34.493Z,24.35
2019-06-07T04:27:33.078Z,23.11
2019-06-07T04:29:26.730Z,21.87
2019-06-07T04:29:37.010Z,23.68
2019-06-07T04:30:34.204Z,22.44
2019-06-07T04:31:32.641Z,21.77
2019-06-07T04:32:33.738Z,18.91
2019-06-07T04:33:34.073Z,20.34
2019-06-07T04:34:34.953Z,19.86
2019-06-07T04:35:32.955Z,18.05
2019-06-07T04:36:45.623Z,16.04
2019-06-07T04:37:33.317Z,15.19
2019-06-07T04:38:32.714Z,15.28
2019-06-07T04:39:33.990Z,14.90
2019-06-07T04:40:32.290Z,15.28
2019-06-07T04:41:33.431Z,16.82
2019-06-07T04:42:35.076Z,17.68
2019-06-07T04:43:31.868Z,22.26
2019-06-07T04:44:31.467Z,23.03
2019-06-07T04:45:36.795Z,22.45
2019-06-07T04:46:31.750Z,22.74
2019-06-07T04:47:33.806Z,22.07
2019-06-07T04:48:32.765Z,23.79
2019-06-07T04:49:33.523Z,20.35
2019-06-07T04:50:33.848Z,18.73
2019-06-07T04:51:31.889Z,20.16
2019-06-07T04:52:33.456Z,21.88
2019-06-07T04:53:35.347Z,24.08
2019-06-07T04:54:32.816Z,24.08
2019-06-07T04:55:31.504Z,23.50
2019-06-07T04:56:33.810Z,23.12
2019-06-07T04:57:33.489Z,25.51
2019-06-07T04:58:31.486Z,26.29
2019-06-07T05:00:09.434Z,28.20
2019-06-07T05:01:32.162Z,26.00
2019-06-07T05:02:32.019Z,27.44
2019-06-07T05:03:34.807Z,26.57
2019-06-07T05:04:31.722Z,26.00
2019-06-07T05:05:31.864Z,30.88
2019-06-07T05:06:32.937Z,31.16
2019-06-07T05:07:31.028Z,34.99
2019-06-07T05:08:31.969Z,33.46
2019-06-07T05:09:32.446Z,31.07
2019-06-07T05:10:34.334Z,30.21
2019-06-07T05:11:31.986Z,29.54
2019-06-07T05:12:32.526Z,34.51
2019-06-07T05:13:31.422Z,35.28
2019-06-07T05:14:32.540Z,38.24
2019-06-07T05:15:30.316Z,36.23
2019-06-07T05:16:30.489Z,37.88
2019-06-07T05:17:31.726Z,39.98
2019-06-07T05:18:30.205Z,36.73
2019-06-07T05:19:30.511Z,41.89
2019-06-07T05:20:30.133Z,42.47
2019-06-07T05:21:49.363Z,41.80
2019-06-07T05:22:31.525Z,44.38
2019-06-07T05:24:02.564Z,45.15
2019-06-07T05:24:30.717Z,47.16
2019-06-07T05:25:31.858Z,46.67
2019-06-07T05:26:30.493Z,51.84
2019-06-07T05:27:33.149Z,52.22
2019-06-07T05:28:30.067Z,49.16
2019-06-07T05:29:30.806Z,49.64
2019-06-07T05:31:02.009Z,52.61
2019-06-07T05:31:31.101Z,48.68
2019-06-07T05:32:32.541Z,49.35
2019-06-07T05:33:31.169Z,53.85
2019-06-07T05:34:32.278Z,47.44
2019-06-07T05:35:30.573Z,50.21
2019-06-07T05:36:31.311Z,57.58
2019-06-07T05:37:32.149Z,51.93
2019-06-07T05:38:29.475Z,54.45
2019-06-07T05:39:29.437Z,58.15
2019-06-07T05:40:29.402Z,52.13
2019-06-07T05:41:29.366Z,49.57
2019-06-07T05:42:29.333Z,52.06
2019-06-07T05:43:29.289Z,54.36
2019-06-07T05:44:29.250Z,52.34
2019-06-07T05:45:29.232Z,53.88
2019-06-07T05:46:29.181Z,53.20
2019-06-07T05:47:29.147Z,55.79
2019-06-07T05:48:29.112Z,56.37
2019-06-07T05:49:29.070Z,60.58
2019-06-07T05:50:42.317Z,58.37
2019-06-07T05:51:29.002Z,57.90
2019-06-07T05:52:28.967Z,58.09
2019-06-07T05:53:28.930Z,58.66
2019-06-07T05:54:28.942Z,57.42
2019-06-07T05:55:28.854Z,60.48
2019-06-07T05:56:28.817Z,62.01
2019-06-07T05:57:28.779Z,58.28
2019-06-07T05:58:28.748Z,58.47
2019-06-07T05:59:28.713Z,58.66
2019-06-07T06:00:28.677Z,61.91
2019-06-07T06:01:53.173Z,59.81
2019-06-07T06:02:28.604Z,59.72
2019-06-07T06:03:28.565Z,64.12
2019-06-07T06:04:28.711Z,64.31
2019-06-07T06:05:34.194Z,64.40
2019-06-07T06:06:28.459Z,66.70
2019-06-07T06:07:28.421Z,62.01
2019-06-07T06:08:28.383Z,66.13
2019-06-07T06:09:28.346Z,63.54
2019-06-07T06:10:28.313Z,63.26
2019-06-07T06:11:43.408Z,64.79
2019-06-07T06:12:35.111Z,64.31
2019-06-07T06:13:28.208Z,62.49
2019-06-07T06:14:28.170Z,63.06
2019-06-07T06:15:42.191Z,65.97
2019-06-07T06:16:28.094Z,66.06
2019-06-07T06:17:28.058Z,68.84
2019-06-07T06:18:28.024Z,71.01
2019-06-07T06:19:27.989Z,67.94
2019-06-07T06:20:32.820Z,67.37
2019-06-07T06:21:27.913Z,68.42
2019-06-07T06:22:27.881Z,67.27
2019-06-07T06:23:27.846Z,64.40
2019-06-07T06:24:27.812Z,66.03
2019-06-07T06:25:33.606Z,64.79
2019-06-07T06:26:27.738Z,66.70
2019-06-07T06:28:03.093Z,66.93
2019-06-07T06:28:27.663Z,71.81
2019-06-07T06:29:27.629Z,69.89
2019-06-07T06:30:27.592Z,72.00
2019-06-07T06:31:27.559Z,75.10
2019-06-07T06:32:41.848Z,72.80
2019-06-07T06:33:34.206Z,74.43
2019-06-07T06:34:27.454Z,71.84
2019-06-07T06:35:27.417Z,72.80
2019-06-07T06:36:27.377Z,75.01
2019-06-07T06:37:27.344Z,79.51
2019-06-07T06:38:27.311Z,75.48
2019-06-07T06:39:27.269Z,73.76
2019-06-07T06:40:27.235Z,78.55
2019-06-07T06:41:27.201Z,78.74
2019-06-07T06:42:27.162Z,76.73
2019-06-07T06:43:27.131Z,75.77
2019-06-07T06:44:27.095Z,76.54
2019-06-07T06:45:27.063Z,76.54
2019-06-07T06:46:38.936Z,73.57
2019-06-07T06:47:26.987Z,77.78
2019-06-07T06:48:26.952Z,74.15
2019-06-07T06:49:26.916Z,78.36
2019-06-07T06:50:26.878Z,81.23
2019-06-07T06:51:26.848Z,81.23
2019-06-07T06:52:26.816Z,81.13
2019-06-07T06:53:26.776Z,80.66
2019-06-07T06:54:40.099Z,78.55
2019-06-07T06:55:26.707Z,80.27
2019-06-07T06:56:26.669Z,82.48
2019-06-07T06:57:27.858Z,79.51
2019-06-07T06:58:26.600Z,82.04
2019-06-07T06:59:38.559Z,87.88
2019-06-07T07:00:43.075Z,85.39
2019-06-07T07:01:26.491Z,81.46
2019-06-07T07:02:26.457Z,87.12
2019-06-07T07:04:26.388Z,85.97
2019-06-07T07:05:26.351Z,85.39
2019-06-07T07:06:27.007Z,83.72
2019-06-07T07:07:26.444Z,87.65
2019-06-07T07:08:26.245Z,84.53
2019-06-07T07:09:26.213Z,82.52
2019-06-07T07:10:26.177Z,87.12
2019-06-07T07:11:26.138Z,85.49
2019-06-07T07:12:26.104Z,83.58
2019-06-07T07:13:26.085Z,86.93
2019-06-07T07:14:26.038Z,88.84
2019-06-07T07:15:26.002Z,87.70
2019-06-07T07:16:25.966Z,86.54
2019-06-07T07:17:46.693Z,86.16
2019-06-07T07:18:25.898Z,85.88
2019-06-07T07:19:25.859Z,89.51
2019-06-07T07:20:25.833Z,87.12
2019-06-07T07:21:25.810Z,87.12
2019-06-07T07:22:25.754Z,88.37
2019-06-07T07:23:25.721Z,89.61
2019-06-07T07:24:25.685Z,89.90
2019-06-07T07:25:25.648Z,86.16
2019-06-07T07:26:25.612Z,83.00
2019-06-07T07:27:25.581Z,88.31
2019-06-07T07:28:25.545Z,88.46
2019-06-07T07:29:25.588Z,86.11
2019-06-07T07:30:36.774Z,88.60
2019-06-07T07:31:25.438Z,86.88
2019-06-07T07:32:25.408Z,89.37
2019-06-07T07:33:25.370Z,89.47
2019-06-07T07:34:34.839Z,87.70
2019-06-07T07:35:25.305Z,88.41
2019-06-07T07:36:38.912Z,91.38
2019-06-07T07:37:25.232Z,86.11
2019-06-07T07:38:25.208Z,87.64
2019-06-07T07:39:25.160Z,86.30
2019-06-07T07:41:25.092Z,86.21
2019-06-07T07:42:25.059Z,87.64
2019-06-07T07:43:25.020Z,85.25
2019-06-07T07:44:24.987Z,85.53
2019-06-07T07:45:24.950Z,87.74
2019-06-07T07:46:29.761Z,83.33
2019-06-07T07:47:24.884Z,87.11
2019-06-07T07:48:24.931Z,86.88
2019-06-07T07:49:24.813Z,88.98
2019-06-07T07:50:24.780Z,87.78
2019-06-07T07:51:24.738Z,87.07
2019-06-07T07:52:24.707Z,84.86
2019-06-07T07:53:24.675Z,86.25
2019-06-07T07:54:24.636Z,88.26
2019-06-07T07:55:24.662Z,86.01
2019-06-07T07:56:24.571Z,84.23
2019-06-07T07:57:24.532Z,87.30
2019-06-07T07:58:24.498Z,86.25
2019-06-07T07:59:41.205Z,86.34
2019-06-07T08:00:50.156Z,89.12
2019-06-07T08:01:24.397Z,89.41
2019-06-07T08:02:24.364Z,89.32
2019-06-07T08:03:24.324Z,88.45
2019-06-07T08:04:39.816Z,86.34
2019-06-07T08:05:39.984Z,84.52
2019-06-07T08:06:24.221Z,87.49
2019-06-07T08:07:24.204Z,86.05
2019-06-07T08:08:24.155Z,89.99
2019-06-07T08:09:24.147Z,89.26
2019-06-07T08:10:24.091Z,91.28
2019-06-07T08:11:24.048Z,88.40
2019-06-07T08:12:24.018Z,88.40
2019-06-07T08:13:26.845Z,86.10
2019-06-07T08:14:23.948Z,87.05
2019-06-07T08:15:23.946Z,88.02
2019-06-07T08:16:23.876Z,85.71
2019-06-07T08:17:23.842Z,86.96
2019-06-07T08:18:23.868Z,86.96
2019-06-07T08:19:23.777Z,85.75
2019-06-07T08:20:23.739Z,94.59
2019-06-07T08:21:26.698Z,94.31
2019-06-07T08:22:23.674Z,89.02
2019-06-07T08:23:23.633Z,92.10
2019-06-07T08:24:23.600Z,92.00
2019-06-07T08:25:23.566Z,89.89
2019-06-07T08:26:23.529Z,88.93
2019-06-07T08:27:26.675Z,90.46
2019-06-07T08:28:23.463Z,92.05
2019-06-07T08:29:23.430Z,90.60
2019-06-07T08:30:47.760Z,85.51
2019-06-07T08:31:23.365Z,98.24
2019-06-07T08:32:23.327Z,95.84
2019-06-07T08:33:26.412Z,94.06
2019-06-07T08:34:23.262Z,91.56
2019-06-07T08:36:03.004Z,90.60
2019-06-07T08:36:40.869Z,93.10
2019-06-07T08:37:23.155Z,93.10
2019-06-07T08:38:27.303Z,98.68
2019-06-07T08:39:23.091Z,97.62
2019-06-07T08:40:23.054Z,92.19
2019-06-07T08:41:23.020Z,93.58
2019-06-07T08:42:36.435Z,95.40
2019-06-07T08:43:22.958Z,90.99
2019-06-07T08:44:25.513Z,89.36
2019-06-07T08:45:22.885Z,92.81
2019-06-07T08:46:22.853Z,93.96
2019-06-07T08:47:22.812Z,93.49
2019-06-07T08:48:27.776Z,92.81
2019-06-07T08:49:22.780Z,93.87
2019-06-07T08:50:22.711Z,91.66
2019-06-07T08:51:22.682Z,92.81
2019-06-07T08:52:22.652Z,93.39
2019-06-07T08:53:22.612Z,90.89
2019-06-07T08:54:23.492Z,94.16
2019-06-07T08:55:22.542Z,89.88
2019-06-07T08:56:22.515Z,90.75
2019-06-07T08:57:22.477Z,90.26
2019-06-07T08:58:22.441Z,94.01
2019-06-07T08:59:22.413Z,95.50
2019-06-07T09:01:22.376Z,86.13
2019-06-07T09:02:24.143Z,94.11
2019-06-07T09:03:22.276Z,93.82
2019-06-07T09:04:22.317Z,96.99
2019-06-07T09:05:22.209Z,92.91
2019-06-07T09:07:22.359Z,98.68
2019-06-07T09:08:29.990Z,92.13
2019-06-07T09:09:22.070Z,98.58
2019-06-07T09:10:22.041Z,93.77
2019-06-07T09:11:22.007Z,94.15
2019-06-07T09:12:21.973Z,99.99
2019-06-07T09:13:21.942Z,97.24
2019-06-07T09:14:21.908Z,96.47
2019-06-07T09:15:24.086Z,95.98
2019-06-07T09:16:21.879Z,92.08
2019-06-07T09:17:21.806Z,98.10
2019-06-07T09:18:41.098Z,99.99
2019-06-07T09:19:21.734Z,98.39
2019-06-07T09:20:36.538Z,99.99
2019-06-07T09:21:21.669Z,99.99
2019-06-07T09:22:21.634Z,99.99
2019-06-07T09:23:21.609Z,94.45
2019-06-07T09:24:21.570Z,96.22
2019-06-07T09:25:21.944Z,98.63
2019-06-07T09:26:21.508Z,99.99
2019-06-07T09:27:21.467Z,98.63
2019-06-07T09:28:21.435Z,99.01
2019-06-07T09:29:21.406Z,99.99
2019-06-07T09:30:21.368Z,99.99
2019-06-07T09:31:21.339Z,99.99
2019-06-07T09:32:21.307Z,99.99
2019-06-07T09:33:21.269Z,99.99
2019-06-07T09:34:21.235Z,99.99
2019-06-07T09:35:21.206Z,99.99
2019-06-07T09:49:50.400Z,99.99
2019-06-07T09:50:50.340Z,99.99
2019-06-07T09:51:50.303Z,99.99
2019-06-07T09:52:58.412Z,99.99
2019-06-07T09:53:50.226Z,99.99
2019-06-07T09:55:20.637Z,99.99
2019-06-07T09:55:50.151Z,99.99
2019-06-07T09:56:50.122Z,99.99
2019-06-07T09:57:50.084Z,99.99
2019-06-07T09:58:52.545Z,99.99
2019-06-07T10:00:10.440Z,99.99
2019-06-07T10:02:13.269Z,99.69
2019-06-07T10:04:47.995Z,97.77
2019-06-07T10:07:35.182Z,95.36
2019-06-07T10:12:19.084Z,93.71
2019-06-07T10:13:18.615Z,92.17
2019-06-07T10:14:18.583Z,92.56
2019-06-07T10:15:18.556Z,94.78
2019-06-07T10:16:18.521Z,99.21
2019-06-07T10:17:18.489Z,99.99
2019-06-07T10:18:18.457Z,94.05
2019-06-07T10:19:18.441Z,96.46
2019-06-07T10:20:18.413Z,98.00
2019-06-07T10:21:18.361Z,95.01
2019-06-07T10:22:18.328Z,93.85
2019-06-07T10:23:18.301Z,97.33
2019-06-07T10:24:18.259Z,94.15
2019-06-07T10:25:18.230Z,92.80
2019-06-07T10:26:18.844Z,91.39
2019-06-07T10:27:18.706Z,83.58
2019-06-07T10:28:19.977Z,83.96
2019-06-07T10:29:28.565Z,85.80
2019-06-07T10:31:18.237Z,83.39
2019-06-07T10:32:28.769Z,84.21
2019-06-07T10:33:18.387Z,83.25
2019-06-07T10:34:19.930Z,78.13
2019-06-07T10:36:24.991Z,83.73
2019-06-07T10:37:21.062Z,82.67
2019-06-07T10:39:27.919Z,85.94
2019-06-07T10:41:54.158Z,84.74
2019-06-07T10:42:24.434Z,86.66
2019-06-07T10:47:24.252Z,92.41
2019-06-07T10:53:04.283Z,90.62
2019-06-07T10:54:06.020Z,91.20
2019-06-07T10:55:02.438Z,91.78
2019-06-07T10:56:01.049Z,93.23
2019-06-07T10:57:01.011Z,90.53
2019-06-07T10:58:04.715Z,90.72
2019-06-07T15:33:42.862Z,99.99
2019-06-07T15:34:42.800Z,99.99
2019-06-07T15:35:42.766Z,99.99
2019-06-07T15:36:42.723Z,99.99
2019-06-07T15:37:42.688Z,99.99
2019-06-07T15:38:42.656Z,99.99
2019-06-07T15:39:42.624Z,99.99
2019-06-07T15:40:42.587Z,99.99
2019-06-07T15:41:42.551Z,99.99
2019-06-07T15:42:52.087Z,99.99
2019-06-07T15:43:42.482Z,99.99
2019-06-07T15:44:42.448Z,99.99
2019-06-07T15:45:42.415Z,99.99
2019-06-07T15:46:42.385Z,99.99
2019-06-07T15:47:42.363Z,99.99
2019-06-07T15:48:42.320Z,99.99
2019-06-07T15:49:42.288Z,98.72
2019-06-07T15:50:42.253Z,97.91
2019-06-07T15:51:42.224Z,99.68
2019-06-07T15:52:43.347Z,97.71
2019-06-07T15:53:44.624Z,99.99
2019-06-07T15:54:42.123Z,97.71
2019-06-07T15:55:45.439Z,98.48
2019-06-07T15:56:42.053Z,99.99
2019-06-07T15:57:42.406Z,99.35
2019-06-07T15:58:42.003Z,98.96
2019-06-07T15:59:41.960Z,99.99
2019-06-07T16:00:42.664Z,97.96
2019-06-07T16:01:42.273Z,96.17
2019-06-07T16:02:41.951Z,96.47
2019-06-07T16:03:42.108Z,95.03
2019-06-07T16:04:42.121Z,94.45
2019-06-07T16:05:43.135Z,97.57
2019-06-07T16:06:43.524Z,94.06
2019-06-07T16:07:42.909Z,96.66
2019-06-07T16:08:42.613Z,95.60
2019-06-07T16:09:42.729Z,95.75
2019-06-07T16:10:42.911Z,94.88
2019-06-07T16:11:41.772Z,94.21
2019-06-07T16:12:57.629Z,90.80
2019-06-07T16:13:42.774Z,92.52
2019-06-07T16:14:41.465Z,93.96
2019-06-07T16:15:41.543Z,95.65
2019-06-07T16:16:41.467Z,95.03
2019-06-07T16:17:42.038Z,93.34
2019-06-07T16:18:41.521Z,92.52
2019-06-07T16:19:44.461Z,90.60
2019-06-07T16:20:41.495Z,90.41
2019-06-07T16:21:41.515Z,92.62
2019-06-07T16:22:41.990Z,91.47
2019-06-07T16:23:42.135Z,90.51
2019-06-07T16:24:41.859Z,89.45
2019-06-07T16:25:42.057Z,87.62
2019-06-07T16:26:42.325Z,86.76
2019-06-07T16:27:42.641Z,84.94
2019-06-07T21:49:02.159Z,74.55
2019-06-07T21:50:02.458Z,77.23
2019-06-07T21:51:02.132Z,77.70
2019-06-07T21:52:02.377Z,77.23
2019-06-07T21:53:00.915Z,77.04
2019-06-07T21:54:00.876Z,77.90
2019-06-07T21:55:00.834Z,78.38
2019-06-07T21:56:00.796Z,79.24
2019-06-07T21:57:00.756Z,78.66
2019-06-07T21:58:00.716Z,76.75
2019-06-07T21:59:00.685Z,77.42
2019-06-07T22:00:00.637Z,77.61
2019-06-07T22:01:00.610Z,77.13
2019-06-07T22:02:00.560Z,75.22
2019-06-07T22:03:00.526Z,75.12
2019-06-07T22:04:00.490Z,74.65
2019-06-07T22:05:00.445Z,73.59
2019-06-07T22:06:00.409Z,75.12
2019-06-07T22:07:00.372Z,74.26
2019-06-07T22:08:00.338Z,75.12
2019-06-07T22:09:00.300Z,75.22
2019-06-07T22:10:00.259Z,73.02
2019-06-07T22:11:00.227Z,74.36
2019-06-07T22:12:00.185Z,73.11
2019-06-07T22:13:00.145Z,74.26
2019-06-07T22:14:00.117Z,73.40
2019-06-07T22:15:00.080Z,73.59
2019-06-07T22:16:00.043Z,74.45
2019-06-07T22:17:00.001Z,73.79
2019-06-07T22:17:59.962Z,74.84
2019-06-07T22:18:59.945Z,74.65
2019-06-07T22:19:59.892Z,73.59
2019-06-07T22:20:59.855Z,74.65
2019-06-07T22:22:02.956Z,74.07
2019-06-07T22:22:59.777Z,74.65
2019-06-07T22:23:59.737Z,74.93
2019-06-07T22:24:59.700Z,75.41
2019-06-07T22:25:59.681Z,75.12
2019-06-07T22:26:59.630Z,74.84
2019-06-07T22:27:59.594Z,75.89
2019-06-07T22:28:59.555Z,76.18
2019-06-07T22:29:59.519Z,77.33
2019-06-07T22:30:59.482Z,79.81
2019-06-07T22:31:59.443Z,80.58
2019-06-07T22:32:59.409Z,80.00
2019-06-07T22:33:59.367Z,78.47
2019-06-07T22:34:59.344Z,80.87
2019-06-07T22:35:59.297Z,78.95
2019-06-07T22:36:59.261Z,81.05
2019-06-07T22:37:59.220Z,80.96
2019-06-07T22:38:59.190Z,80.10
2019-06-07T22:39:59.148Z,79.05
2019-06-07T22:40:59.112Z,81.44
2019-06-07T22:41:59.080Z,81.92
2019-06-07T22:42:59.041Z,82.20
2019-06-07T22:43:59.002Z,80.77
2019-06-07T22:44:58.964Z,77.99
2019-06-07T22:45:58.927Z,81.82
2019-06-07T22:46:58.903Z,82.40
2019-06-07T22:47:58.856Z,81.54
2019-06-07T22:48:58.817Z,80.87
2019-06-07T22:49:58.782Z,81.54
2019-06-07T22:50:58.740Z,81.05
2019-06-07T22:52:08.285Z,82.01
2019-06-07T22:52:58.669Z,81.05
2019-06-07T22:53:58.635Z,80.48
2019-06-07T22:54:58.594Z,80.96
2019-06-07T22:55:58.559Z,80.00
2019-06-07T22:56:58.525Z,80.48
2019-06-07T22:57:58.496Z,80.48
2019-06-07T22:58:58.453Z,80.87
2019-06-07T22:59:58.414Z,81.82
2019-06-07T23:00:58.397Z,80.96
2019-06-07T23:01:58.341Z,82.30
2019-06-07T23:02:58.309Z,81.44
2019-06-07T23:03:58.265Z,83.12
2019-06-07T23:04:58.227Z,84.98
2019-06-07T23:05:58.190Z,84.59
2019-06-07T23:06:58.163Z,85.08
2019-06-07T23:07:58.134Z,86.70
2019-06-07T23:08:58.083Z,84.69
2019-06-07T23:09:58.042Z,86.04
2019-06-07T23:10:58.012Z,85.22
2019-06-07T23:11:57.974Z,85.84
2019-06-07T23:12:57.936Z,85.46
2019-06-07T23:13:57.900Z,84.94
2019-06-07T23:14:57.916Z,84.59
2019-06-07T23:15:57.828Z,85.61
2019-06-07T23:16:57.789Z,84.88
2019-06-07T23:17:57.748Z,85.51
2019-06-07T23:18:57.717Z,85.32
2019-06-07T23:19:57.680Z,83.60
2019-06-07T23:20:57.643Z,85.55
2019-06-07T23:21:57.650Z,83.69
2019-06-07T23:22:57.565Z,86.08
2019-06-07T23:23:57.534Z,84.75
2019-06-07T23:24:57.504Z,84.55
2019-06-07T23:25:57.462Z,83.98
2019-06-07T23:26:57.424Z,83.50
2019-06-07T23:27:57.387Z,83.98
2019-06-07T23:28:57.352Z,83.12
2019-06-07T23:29:57.308Z,81.11
2019-06-07T23:30:57.278Z,81.78
2019-06-07T23:31:57.238Z,81.21
2019-06-07T23:32:57.202Z,84.17
2019-06-07T23:33:57.170Z,83.12
2019-06-07T23:34:57.131Z,84.17
2019-06-07T23:35:57.090Z,83.79
2019-06-07T23:36:57.054Z,82.83
2019-06-07T23:37:57.014Z,86.28
2019-06-07T23:38:56.983Z,86.76
2019-06-07T23:39:56.944Z,87.14
2019-06-07T23:40:56.906Z,87.90
2019-06-07T23:41:56.867Z,90.39
2019-06-07T23:42:56.835Z,89.05
2019-06-07T23:43:56.798Z,90.20
2019-06-07T23:44:56.762Z,89.05